Time;durP1;ratioP1;P1;durP2;ratioP2;P2;SDS_P1;SDS_P2;PMS_P1;PMS_P2;Temp;Humidity;BMP_temperature;BMP_pressure;BME280_temperature;BME280_humidity;BME280_pressure;Samples;Min_cycle;Max_cycle;Signal;HPM_P1;HPM_P2
2022/08/07 00:00:30;;;;;;;4.57;1.70;;;;;;;16.53;61.88;101707.69;2079649;28;20045;-75
2022/08/07 00:01:32;;;;;;;6.53;1.67;;;;;;;16.51;61.95;101704.44;2079546;28;20432;-76
2022/08/07 00:02:34;;;;;;;5.07;2.25;;;;;;;16.51;62.12;101696.31;2071282;28;20485;-76
2022/08/07 00:03:37;;;;;;;7.85;1.73;;;;;;;16.48;61.98;101699.59;2079675;28;20037;-75
2022/08/07 00:04:39;;;;;;;4.57;1.70;;;;;;;16.49;62.10;101695.78;2083358;28;20513;-75
2022/08/07 00:05:41;;;;;;;5.93;1.80;;;;;;;16.49;62.15;101693.91;2095973;28;20040;-75
2022/08/07 00:06:43;;;;;;;4.72;1.48;;;;;;;16.46;62.29;101699.91;2083575;28;20537;-75
2022/08/07 00:07:45;;;;;;;4.13;1.80;;;;;;;16.45;62.33;101690.91;2079178;28;20045;-76
2022/08/07 00:08:47;;;;;;;2.78;1.73;;;;;;;16.47;62.67;101690.66;2087786;28;20041;-76
2022/08/07 00:09:49;;;;;;;5.03;1.90;;;;;;;16.47;62.66;101693.38;2091470;28;20530;-75
2022/08/07 00:10:52;;;;;;;3.28;1.60;;;;;;;16.45;62.70;101692.84;2079387;28;20534;-75
2022/08/07 00:11:54;;;;;;;2.22;1.50;;;;;;;16.44;62.76;101689.31;2076144;28;20480;-75
2022/08/07 00:12:59;;;;;;;4.53;1.50;;;;;;;16.45;62.87;101692.84;2095338;28;20056;-75
2022/08/07 00:14:00;;;;;;;5.88;1.50;;;;;;;16.46;62.64;101697.19;2089697;28;20036;-74
2022/08/07 00:15:02;;;;;;;4.00;1.60;;;;;;;16.45;62.74;101690.91;2079454;28;20048;-73
2022/08/07 00:16:04;;;;;;;6.35;1.67;;;;;;;16.42;62.67;101691.53;2063314;28;20426;-74
2022/08/07 00:17:07;;;;;;;4.03;2.00;;;;;;;16.43;62.86;101692.34;2071017;28;20109;-73
2022/08/07 00:18:09;;;;;;;6.25;1.75;;;;;;;16.43;62.90;101695.06;2092836;28;20051;-73
2022/08/07 00:19:11;;;;;;;2.67;1.35;;;;;;;16.43;62.96;101697.75;2087410;28;20060;-75
2022/08/07 00:20:14;;;;;;;2.63;1.52;;;;;;;16.44;62.80;101697.47;2087627;28;20057;-74
2022/08/07 00:21:17;;;;;;;3.22;1.77;;;;;;;16.42;63.17;101696.97;2078815;28;20041;-74
2022/08/07 00:22:18;;;;;;;5.57;1.80;;;;;;;16.42;63.03;101702.38;2070448;28;20049;-74
2022/08/07 00:23:23;;;;;;;7.25;1.70;;;;;;;16.42;63.01;101702.38;2063070;28;20046;-74
2022/08/07 00:24:25;;;;;;;3.78;1.63;;;;;;;16.42;63.14;101702.38;2071606;28;20052;-73
2022/08/07 00:25:30;;;;;;;7.22;1.67;;;;;;;16.42;63.40;101701.56;2071197;28;20108;-73
2022/08/07 00:26:32;;;;;;;2.22;1.40;;;;;;;16.40;62.98;101699.16;2063694;28;20049;-74
2022/08/07 00:27:34;;;;;;;5.10;1.70;;;;;;;16.39;62.93;101697.53;2055002;28;20601;-73
2022/08/07 00:28:36;;;;;;;4.13;1.90;;;;;;;16.40;63.22;101701.88;2057576;28;20058;-75
2022/08/07 00:29:38;;;;;;;4.72;1.60;;;;;;;16.42;63.14;101704.28;2066403;28;20048;-74
2022/08/07 00:30:42;;;;;;;3.50;1.92;;;;;;;16.42;63.18;101702.38;2088206;28;20041;-73
2022/08/07 00:31:45;;;;;;;2.40;1.52;;;;;;;16.42;63.39;101701.56;2096127;28;20037;-73
2022/08/07 00:32:49;;;;;;;3.25;2.05;;;;;;;16.42;63.02;101701.56;2080056;28;20045;-74
2022/08/07 00:33:53;;;;;;;4.38;1.83;;;;;;;16.40;63.44;101706.50;2056611;28;20047;-74
2022/08/07 00:34:56;;;;;;;3.53;1.60;;;;;;;16.40;63.37;101698.34;2063176;28;20033;-75
2022/08/07 00:35:58;;;;;;;4.13;1.77;;;;;;;16.39;63.29;101697.53;2063945;28;20057;-75
2022/08/07 00:37:00;;;;;;;3.53;1.98;;;;;;;16.39;63.71;101707.56;2063742;28;20031;-75
2022/08/07 00:38:06;;;;;;;3.88;1.40;;;;;;;16.39;63.25;101700.25;2071560;28;20140;-73
2022/08/07 00:39:08;;;;;;;4.57;2.05;;;;;;;16.39;63.53;101702.13;2097146;28;20029;-73
2022/08/07 00:40:11;;;;;;;5.07;1.60;;;;;;;16.39;63.19;101699.41;2089503;28;20036;-74
2022/08/07 00:41:14;;;;;;;4.13;1.88;;;;;;;16.37;63.30;101697.00;2058061;28;20049;-75
2022/08/07 00:42:16;;;;;;;3.95;1.58;;;;;;;16.35;63.80;101701.91;2066593;28;20049;-75
2022/08/07 00:43:18;;;;;;;4.30;1.77;;;;;;;16.35;63.70;101691.06;2074107;28;20037;-75
2022/08/07 00:44:21;;;;;;;3.03;1.52;;;;;;;16.34;63.53;101705.72;2066100;28;20042;-73
2022/08/07 00:45:25;;;;;;;5.60;2.17;;;;;;;16.33;63.78;101693.28;2074476;28;20049;-73
2022/08/07 00:46:27;;;;;;;5.43;1.67;;;;;;;16.34;63.58;101692.16;2074292;28;20038;-72
2022/08/07 00:47:33;;;;;;;4.85;1.50;;;;;;;16.31;63.50;101695.44;2074615;28;20038;-73
2022/08/07 00:48:37;;;;;;;4.47;1.55;;;;;;;16.33;63.49;101689.72;2074524;28;20046;-73
2022/08/07 00:49:40;;;;;;;3.47;2.00;;;;;;;16.29;63.54;101694.91;2074232;28;20421;-73
2022/08/07 00:50:42;;;;;;;3.70;1.75;;;;;;;16.30;63.74;101691.13;2090283;28;20036;-72
2022/08/07 00:51:44;;;;;;;3.03;1.63;;;;;;;16.30;63.52;101691.13;2073483;28;20513;-72
2022/08/07 00:52:46;;;;;;;4.22;1.65;;;;;;;16.30;63.73;101693.00;2065791;28;20034;-73
2022/08/07 00:53:48;;;;;;;5.43;1.80;;;;;;;16.27;63.60;101699.00;2073874;28;20038;-73
2022/08/07 00:54:51;;;;;;;4.85;1.85;;;;;;;16.25;63.82;101696.59;2065833;28;20038;-73
2022/08/07 00:55:56;;;;;;;5.40;1.75;;;;;;;16.26;63.86;101698.22;2082983;28;20056;-73
2022/08/07 00:56:59;;;;;;;3.78;1.60;;;;;;;16.24;64.07;101695.00;2097917;28;20047;-73
2022/08/07 00:58:02;;;;;;;4.10;1.80;;;;;;;16.25;63.91;101702.03;2090152;28;20059;-73
2022/08/07 00:59:05;;;;;;;6.70;2.08;;;;;;;16.24;63.90;101688.78;2090716;28;20036;-73
2022/08/07 01:00:08;;;;;;;4.05;1.63;;;;;;;16.24;64.04;101694.19;2090174;28;20102;-73
2022/08/07 01:01:13;;;;;;;5.88;1.55;;;;;;;16.23;63.91;101698.78;2082922;28;20041;-72
2022/08/07 01:02:15;;;;;;;4.07;1.60;;;;;;;16.18;64.00;101691.53;2072347;28;20041;-73
2022/08/07 01:03:18;;;;;;;2.92;1.67;;;;;;;16.18;64.00;101688.81;2065112;28;20042;-73
2022/08/07 01:04:20;;;;;;;5.03;1.88;;;;;;;16.19;64.43;101693.13;2073399;28;20045;-73
2022/08/07 01:05:23;;;;;;;3.35;1.80;;;;;;;16.15;64.47;101696.72;2089139;28;20033;-73
2022/08/07 01:06:25;;;;;;;4.53;2.08;;;;;;;16.16;64.12;101692.91;2090275;28;20036;-73
2022/08/07 01:07:28;;;;;;;2.83;1.42;;;;;;;16.17;64.39;101686.38;2090457;28;20044;-73
2022/08/07 01:08:30;;;;;;;3.90;1.50;;;;;;;16.17;64.61;101689.91;2081817;28;20053;-73
2022/08/07 01:09:35;;;;;;;3.80;1.85;;;;;;;16.16;64.30;101693.72;2084109;28;20465;-73
2022/08/07 01:10:41;;;;;;;4.63;1.48;;;;;;;16.14;64.56;101692.38;2090471;28;20045;-73
2022/08/07 01:11:46;;;;;;;4.80;1.40;;;;;;;16.10;64.56;101686.72;2078623;28;20052;-72
2022/08/07 01:12:50;;;;;;;2.80;1.45;;;;;;;16.08;64.55;101698.94;2066480;28;20077;-74
2022/08/07 01:13:54;;;;;;;3.70;1.50;;;;;;;16.09;64.67;101687.81;2074894;28;20053;-72
2022/08/07 01:14:58;;;;;;;2.65;1.40;;;;;;;16.09;64.58;101690.53;2066170;28;20050;-73
2022/08/07 01:16:01;;;;;;;3.33;1.40;;;;;;;16.12;64.88;101694.59;2074728;28;20507;-74
2022/08/07 01:17:04;;;;;;;4.57;1.40;;;;;;;16.12;64.87;101694.59;2090191;28;20372;-74
2022/08/07 01:18:06;;;;;;;5.47;1.48;;;;;;;16.11;65.08;101701.94;2089344;28;20036;-74
2022/08/07 01:19:08;;;;;;;3.92;1.50;;;;;;;16.12;64.72;101702.72;2090034;28;20493;-75
2022/08/07 01:20:15;;;;;;;6.82;1.40;;;;;;;16.10;64.74;101696.78;2081871;28;20042;-75
2022/08/07 01:21:23;;;;;;;2.30;1.40;;;;;;;16.12;64.91;101697.31;2074105;28;20129;-74
2022/08/07 01:22:28;;;;;;;4.13;1.50;;;;;;;16.12;64.70;101691.88;2092926;28;20047;-75
2022/08/07 01:23:34;;;;;;;2.90;1.50;;;;;;;16.12;65.10;101702.72;2097018;28;20059;-75
2022/08/07 01:24:36;;;;;;;2.80;1.50;;;;;;;16.11;64.90;101701.09;2074353;28;20053;-75
2022/08/07 01:25:39;;;;;;;2.78;1.40;;;;;;;16.11;64.73;101690.25;2065811;28;20042;-73
2022/08/07 01:26:41;;;;;;;2.70;1.42;;;;;;;16.12;64.54;101697.31;2065792;28;20518;-74
2022/08/07 01:27:46;;;;;;;5.28;1.52;;;;;;;16.10;64.74;101694.84;2074122;28;20042;-75
2022/08/07 01:28:52;;;;;;;4.28;1.30;;;;;;;16.11;64.86;101692.94;2067096;28;20049;-75
2022/08/07 01:29:57;;;;;;;2.88;1.40;;;;;;;16.11;65.01;101690.25;2067427;28;20151;-75
2022/08/07 01:31:00;;;;;;;1.50;1.20;;;;;;;16.11;64.81;101691.06;2065796;28;20049;-75
2022/08/07 01:32:04;;;;;;;4.05;1.88;;;;;;;16.09;64.81;101692.44;2065934;28;20482;-75
2022/08/07 01:33:06;;;;;;;5.18;1.70;;;;;;;16.11;64.96;101698.38;2073742;28;20045;-75
2022/08/07 01:34:13;;;;;;;1.98;1.40;;;;;;;16.10;64.92;101699.47;2079650;28;20132;-75
2022/08/07 01:35:19;;;;;;;6.63;1.73;;;;;;;16.07;65.04;101694.63;2074428;28;20037;-74
2022/08/07 01:36:24;;;;;;;10.60;2.00;;;;;;;16.08;64.74;101697.06;2074215;28;20042;-74
2022/08/07 01:37:26;;;;;;;2.95;1.27;;;;;;;16.06;65.05;101693.81;2073659;28;20073;-74
2022/08/07 01:38:34;;;;;;;2.38;1.50;;;;;;;16.05;64.97;101692.22;2074223;28;20531;-74
2022/08/07 01:40:07;;;;;;;3.05;1.40;;;;;;;16.06;64.90;101690.31;2074936;28;20049;-75
2022/08/07 01:41:15;;;;;;;2.70;1.35;;;;;;;16.05;65.04;101688.69;2077057;28;20054;-75
2022/08/07 01:42:17;;;;;;;2.67;1.40;;;;;;;16.04;65.01;101692.50;2081858;28;20041;-74
2022/08/07 01:43:20;;;;;;;5.47;1.50;;;;;;;16.04;64.95;101689.78;2098153;28;20040;-74
2022/08/07 01:44:22;;;;;;;3.92;1.50;;;;;;;16.04;65.05;101687.88;2081530;28;20050;-75
2022/08/07 01:45:27;;;;;;;4.10;1.50;;;;;;;16.04;65.36;101697.91;2081870;28;20571;-75
2022/08/07 01:46:33;;;;;;;3.33;1.45;;;;;;;16.04;65.05;101695.22;2081859;28;20037;-75
2022/08/07 01:47:37;;;;;;;4.88;1.52;;;;;;;16.05;65.18;101697.66;2073596;28;20453;-75
2022/08/07 01:48:41;;;;;;;1.80;1.25;;;;;;;16.03;65.02;101688.97;2081781;28;20045;-75
2022/08/07 01:49:45;;;;;;;4.93;1.40;;;;;;;16.04;65.05;101695.22;2074087;28;20508;-75
2022/08/07 01:50:54;;;;;;;3.65;1.58;;;;;;;16.02;65.21;101697.41;2072706;28;20038;-75
2022/08/07 01:52:02;;;;;;;2.03;1.50;;;;;;;16.02;65.49;101697.41;2078796;28;20041;-75
2022/08/07 01:53:09;;;;;;;2.78;1.30;;;;;;;16.02;65.38;101700.94;2073532;28;20387;-73
2022/08/07 01:54:18;;;;;;;3.38;1.35;;;;;;;15.99;65.51;101705.03;2082873;28;20049;-74
2022/08/07 01:55:27;;;;;;;5.85;1.70;;;;;;;15.98;65.44;101698.00;2080714;28;20049;-75
2022/08/07 01:56:38;;;;;;;2.53;1.50;;;;;;;16.01;65.46;101706.63;2071140;28;20037;-75
2022/08/07 01:57:41;;;;;;;2.58;1.40;;;;;;;16.01;65.58;101701.19;2073433;28;20041;-75
2022/08/07 01:58:51;;;;;;;2.35;1.50;;;;;;;16.02;65.18;101702.84;2082488;28;20052;-74
2022/08/07 02:00:01;;;;;;;6.18;1.50;;;;;;;16.00;65.50;101705.81;2080357;28;20052;-74
2022/08/07 02:01:09;;;;;;;2.78;1.30;;;;;;;15.97;65.60;101701.78;2066489;28;20039;-74
2022/08/07 02:02:24;;;;;;;3.15;1.33;;;;;;;16.00;65.51;101708.53;2066197;28;20494;-75
2022/08/07 02:03:32;;;;;;;3.80;1.60;;;;;;;16.00;65.52;101705.81;2071508;28;20045;-75
2022/08/07 02:04:37;;;;;;;4.38;1.60;;;;;;;16.01;65.67;101701.19;2074373;28;20042;-74
2022/08/07 02:05:57;;;;;;;7.88;1.30;;;;;;;16.01;65.52;101710.16;2066136;28;20065;-74
2022/08/07 02:07:01;;;;;;;2.25;1.30;;;;;;;16.01;65.61;101707.44;2072162;28;20046;-73
2022/08/07 02:08:10;;;;;;;6.95;1.52;;;;;;;16.01;65.53;101709.34;2066941;28;20026;-75
2022/08/07 02:09:19;;;;;;;5.57;1.60;;;;;;;16.01;65.36;101706.63;2068085;28;20042;-75
2022/08/07 02:10:26;;;;;;;2.53;1.77;;;;;;;16.02;65.49;101702.84;2075490;28;20145;-74
2022/08/07 02:11:31;;;;;;;1.90;1.30;;;;;;;16.01;65.60;101712.06;2081333;28;20045;-74
2022/08/07 02:12:37;;;;;;;3.78;1.45;;;;;;;16.02;65.79;101710.97;2081493;28;20041;-74
2022/08/07 02:13:42;;;;;;;3.53;1.40;;;;;;;16.01;65.72;101712.06;2065892;28;20035;-74
2022/08/07 02:14:54;;;;;;;4.15;1.50;;;;;;;15.98;65.47;101705.28;2051445;28;20419;-72
2022/08/07 02:16:06;;;;;;;6.85;1.73;;;;;;;16.01;65.65;101706.63;2069782;28;20041;-75
2022/08/07 02:17:11;;;;;;;3.25;1.30;;;;;;;16.02;65.72;101708.28;2073593;28;20044;-75
2022/08/07 02:18:15;;;;;;;6.25;1.90;;;;;;;16.01;65.61;101707.44;2065582;28;20046;-75
2022/08/07 02:19:18;;;;;;;4.35;1.30;;;;;;;15.99;65.89;101705.03;2081945;28;20078;-75
2022/08/07 02:20:22;;;;;;;2.50;1.42;;;;;;;15.99;66.00;101705.03;2086413;28;20041;-75
2022/08/07 02:21:28;;;;;;;1.95;1.30;;;;;;;16.01;65.63;101703.91;2074621;28;20053;-75
2022/08/07 02:22:32;;;;;;;2.90;1.52;;;;;;;16.01;66.10;101702.00;2082373;28;20041;-75
2022/08/07 02:23:38;;;;;;;3.38;1.25;;;;;;;16.04;65.98;101700.63;2073379;28;20049;-75
2022/08/07 02:24:44;;;;;;;3.60;1.55;;;;;;;16.03;66.04;101705.25;2073882;28;20417;-75
2022/08/07 02:25:52;;;;;;;1.83;1.10;;;;;;;16.04;66.01;101703.34;2065022;28;20064;-74
2022/08/07 02:26:54;;;;;;;3.15;1.30;;;;;;;16.01;65.77;101712.84;2075232;28;20034;-74
2022/08/07 02:27:59;;;;;;;3.92;1.30;;;;;;;16.01;65.69;101701.19;2081262;28;20060;-75
2022/08/07 02:29:05;;;;;;;4.82;1.40;;;;;;;16.02;66.14;101705.56;2082269;28;20029;-75
2022/08/07 02:30:08;;;;;;;2.35;1.30;;;;;;;16.04;66.33;101706.06;2080232;28;20497;-75
2022/08/07 02:31:12;;;;;;;2.58;1.40;;;;;;;16.03;66.29;101699.81;2065447;28;20442;-75
2022/08/07 02:32:18;;;;;;;5.82;1.50;;;;;;;16.05;66.22;101702.28;2057525;28;20510;-75
2022/08/07 02:33:25;;;;;;;3.67;1.58;;;;;;;16.05;66.27;101707.69;2065751;28;20041;-75
2022/08/07 02:34:29;;;;;;;5.70;1.67;;;;;;;16.03;66.25;101707.97;2071639;28;20041;-76
2022/08/07 02:35:33;;;;;;;3.38;1.45;;;;;;;16.06;66.23;101703.88;2082127;28;20045;-75
2022/08/07 02:36:40;;;;;;;4.25;1.60;;;;;;;16.04;66.28;101700.63;2070213;28;20045;-75
2022/08/07 02:37:48;;;;;;;3.38;1.30;;;;;;;16.04;66.57;101706.06;2069418;28;20042;-74
2022/08/07 02:38:52;;;;;;;3.47;1.42;;;;;;;16.06;66.34;101704.69;2074270;28;20042;-74
2022/08/07 02:39:57;;;;;;;3.15;1.38;;;;;;;16.06;66.80;101703.88;2073228;28;20030;-74
2022/08/07 02:41:00;;;;;;;3.67;1.65;;;;;;;16.06;66.37;101709.31;2074248;28;20030;-74
2022/08/07 02:42:06;;;;;;;3.80;1.40;;;;;;;16.08;66.63;101704.38;2081524;28;20034;-74
2022/08/07 02:43:10;;;;;;;5.85;1.60;;;;;;;16.08;66.73;101704.38;2082778;28;20040;-74
2022/08/07 02:44:14;;;;;;;4.55;1.20;;;;;;;16.09;66.59;101708.72;2072742;28;20037;-75
2022/08/07 02:45:21;;;;;;;3.05;1.48;;;;;;;16.08;66.56;101712.50;2056975;28;20061;-75
2022/08/07 02:46:25;;;;;;;3.85;1.52;;;;;;;16.08;66.89;101709.81;2051656;28;20050;-75
2022/08/07 02:47:34;;;;;;;2.60;1.40;;;;;;;16.07;66.63;101709.00;2090191;28;20420;-75
2022/08/07 02:48:43;;;;;;;2.42;1.40;;;;;;;16.07;66.63;101710.91;2093141;28;20439;-74
2022/08/07 02:49:45;;;;;;;3.65;1.60;;;;;;;16.08;66.80;101716.06;2081307;28;20543;-75
2022/08/07 02:50:51;;;;;;;3.25;1.27;;;;;;;16.06;67.07;101715.53;2081053;28;20041;-74
2022/08/07 02:51:57;;;;;;;4.97;1.40;;;;;;;16.02;67.14;101714.50;2081780;28;20416;-76
2022/08/07 02:53:05;;;;;;;3.90;1.40;;;;;;;16.06;67.24;101717.44;2081090;28;20037;-73
2022/08/07 02:54:10;;;;;;;2.88;1.10;;;;;;;16.04;66.96;101722.34;2073658;28;20030;-73
2022/08/07 02:55:21;;;;;;;1.75;1.17;;;;;;;16.03;66.98;101726.16;2072315;28;20033;-73
2022/08/07 02:56:27;;;;;;;3.30;1.33;;;;;;;16.02;66.98;101719.13;2063608;28;20042;-73
2022/08/07 02:57:35;;;;;;;3.33;1.35;;;;;;;16.01;67.51;101722.91;2058615;28;20090;-73
2022/08/07 02:58:38;;;;;;;3.42;1.00;;;;;;;16.03;67.42;101720.72;2065951;28;20042;-73
2022/08/07 02:59:47;;;;;;;2.42;1.30;;;;;;;16.05;67.42;101726.69;2067912;28;20049;-73
2022/08/07 03:00:54;;;;;;;1.83;1.30;;;;;;;16.05;67.29;101721.25;2091690;28;20437;-72
2022/08/07 03:01:56;;;;;;;2.67;1.23;;;;;;;16.03;67.26;101721.53;2088587;28;20037;-73
2022/08/07 03:02:59;;;;;;;3.20;1.30;;;;;;;16.03;67.32;101731.56;2080425;28;20040;-73
2022/08/07 03:04:06;;;;;;;3.75;1.20;;;;;;;16.04;66.97;101717.72;2073454;28;20041;-73
2022/08/07 03:05:10;;;;;;;11.50;2.22;;;;;;;16.05;67.35;101730.19;2082770;28;20425;-74
2022/08/07 03:06:14;;;;;;;5.07;1.20;;;;;;;16.04;67.32;101725.03;2073429;28;20049;-73
2022/08/07 03:07:17;;;;;;;3.42;1.33;;;;;;;16.03;67.36;101728.88;2065533;28;20042;-74
2022/08/07 03:08:21;;;;;;;3.33;1.13;;;;;;;15.97;67.65;101728.91;2072682;28;20050;-74
2022/08/07 03:09:27;;;;;;;2.22;1.15;;;;;;;16.01;67.72;101722.91;2065497;28;20051;-74
2022/08/07 03:10:31;;;;;;;5.38;1.35;;;;;;;16.03;67.48;101726.16;2065140;28;20061;-74
2022/08/07 03:11:37;;;;;;;1.80;1.20;;;;;;;16.02;67.56;101727.25;2064370;28;20046;-74
2022/08/07 03:12:44;;;;;;;8.07;1.48;;;;;;;15.95;68.06;101725.69;2068145;28;20486;-74
2022/08/07 03:13:48;;;;;;;2.95;1.45;;;;;;;15.97;67.86;101722.69;2080495;28;20462;-73
2022/08/07 03:14:55;;;;;;;4.88;1.40;;;;;;;15.96;68.20;101719.16;2089619;28;20039;-74
2022/08/07 03:15:57;;;;;;;1.60;1.10;;;;;;;15.99;68.37;101726.72;2088702;28;20044;-74
2022/08/07 03:17:00;;;;;;;2.03;1.00;;;;;;;15.99;67.95;101725.91;2089307;28;20037;-73
2022/08/07 03:18:02;;;;;;;1.95;1.33;;;;;;;15.97;68.38;101728.91;2072566;28;20033;-72
2022/08/07 03:19:05;;;;;;;1.80;1.20;;;;;;;15.92;68.42;101720.84;2073185;28;20037;-73
2022/08/07 03:20:08;;;;;;;4.28;1.60;;;;;;;15.96;68.54;101721.88;2072639;28;20477;-72
2022/08/07 03:21:11;;;;;;;3.35;1.27;;;;;;;15.97;68.46;101723.47;2081903;28;20072;-72
2022/08/07 03:22:16;;;;;;;9.07;1.60;;;;;;;15.97;68.63;101718.06;2088792;28;20436;-74
2022/08/07 03:23:22;;;;;;;3.20;1.27;;;;;;;16.01;68.95;101717.47;2065333;28;20042;-74
2022/08/07 03:24:26;;;;;;;1.85;1.27;;;;;;;16.04;68.63;101722.34;2059086;28;20059;-74
2022/08/07 03:25:31;;;;;;;2.95;1.20;;;;;;;15.96;69.09;101716.44;2065524;28;20034;-74
2022/08/07 03:26:37;;;;;;;2.15;1.20;;;;;;;16.00;69.62;101722.09;2070852;28;20490;-74
2022/08/07 03:27:42;;;;;;;2.70;1.05;;;;;;;16.01;69.61;101712.84;2073554;28;20474;-73
2022/08/07 03:28:48;;;;;;;3.33;1.20;;;;;;;15.97;69.81;101709.13;2076798;28;20041;-73
2022/08/07 03:29:51;;;;;;;2.92;1.00;;;;;;;16.01;69.98;101712.84;2073294;28;20765;-73
2022/08/07 03:31:17;;;;;;;2.30;1.30;;;;;;;16.05;70.17;101708.50;2081404;28;20041;-73
2022/08/07 03:32:24;;;;;;;4.93;1.10;;;;;;;16.06;69.97;101710.09;2083819;28;20049;-73
2022/08/07 03:33:26;;;;;;;6.60;1.00;;;;;;;16.07;70.31;101713.63;2073716;28;20046;-74
2022/08/07 03:34:30;;;;;;;1.70;1.10;;;;;;;16.11;70.28;101714.66;2089157;28;20033;-73
2022/08/07 03:35:39;;;;;;;3.45;1.10;;;;;;;16.10;70.18;101705.72;2080997;28;20045;-73
2022/08/07 03:36:43;;;;;;;2.72;0.90;;;;;;;16.11;70.35;101711.94;2062889;28;20498;-73
2022/08/07 03:37:47;;;;;;;1.40;0.90;;;;;;;16.06;70.20;101712.00;2072599;28;20033;-72
2022/08/07 03:38:52;;;;;;;4.20;1.00;;;;;;;16.06;70.73;101714.72;2072879;28;20084;-72
2022/08/07 03:39:56;;;;;;;1.83;1.10;;;;;;;16.10;70.53;101718.47;2073209;28;20139;-72
2022/08/07 03:41:00;;;;;;;1.25;1.10;;;;;;;16.11;70.58;101710.06;2055773;28;20131;-72
2022/08/07 03:42:07;;;;;;;3.88;1.05;;;;;;;16.13;70.68;101716.00;2049832;28;20577;-72
2022/08/07 03:43:10;;;;;;;2.25;1.00;;;;;;;16.12;70.62;101708.97;2058425;28;20061;-72
2022/08/07 03:44:13;;;;;;;1.88;1.02;;;;;;;16.09;70.55;101714.16;2072767;28;20121;-72
2022/08/07 03:45:18;;;;;;;5.70;1.00;;;;;;;16.10;70.62;101708.44;2072389;28;20061;-73
2022/08/07 03:46:22;;;;;;;1.08;0.98;;;;;;;16.08;71.01;101713.34;2065562;28;20117;-73
2022/08/07 03:47:27;;;;;;;3.88;1.17;;;;;;;16.11;70.85;101723.63;2065356;28;20046;-73
2022/08/07 03:48:32;;;;;;;2.45;0.90;;;;;;;16.12;70.75;101721.72;2073348;28;20044;-73
2022/08/07 03:49:35;;;;;;;2.00;1.05;;;;;;;16.14;70.92;101722.22;2072964;28;20041;-72
2022/08/07 03:50:38;;;;;;;4.03;1.20;;;;;;;16.14;70.76;101724.94;2080955;28;20067;-73
2022/08/07 03:51:41;;;;;;;1.88;1.30;;;;;;;16.15;70.81;101726.56;2088829;28;20420;-73
2022/08/07 03:52:47;;;;;;;2.53;1.10;;;;;;;16.16;71.06;101725.47;2089515;28;20045;-73
2022/08/07 03:53:50;;;;;;;2.00;1.00;;;;;;;16.14;70.99;101723.06;2088741;28;20036;-73
2022/08/07 03:54:55;;;;;;;2.60;1.02;;;;;;;16.18;71.23;101717.84;2080566;28;20394;-74
2022/08/07 03:56:00;;;;;;;2.25;1.00;;;;;;;16.16;70.77;101728.97;2064450;28;20034;-72
2022/08/07 03:57:05;;;;;;;3.17;0.93;;;;;;;16.20;70.81;101723.78;2065613;28;20046;-73
2022/08/07 03:58:08;;;;;;;1.88;0.85;;;;;;;16.17;70.84;101724.34;2072951;28;20045;-73
2022/08/07 03:59:13;;;;;;;1.90;0.93;;;;;;;16.18;70.71;101717.84;2080881;28;20045;-73
2022/08/07 04:00:21;;;;;;;3.50;0.98;;;;;;;16.20;70.74;101726.50;2073369;28;20053;-74
2022/08/07 04:01:31;;;;;;;4.60;1.20;;;;;;;16.21;70.68;101723.50;2072905;28;20050;-74
2022/08/07 04:02:33;;;;;;;1.85;0.90;;;;;;;16.21;70.77;101730.84;2080596;28;20393;-75
2022/08/07 04:03:38;;;;;;;1.70;0.77;;;;;;;16.18;70.79;101729.50;2081526;28;20041;-75
2022/08/07 04:04:42;;;;;;;4.15;1.00;;;;;;;16.17;70.72;101722.47;2080651;28;20034;-75
2022/08/07 04:05:44;;;;;;;1.98;1.23;;;;;;;16.16;70.61;101726.28;2073345;28;20052;-73
2022/08/07 04:06:56;;;;;;;2.20;1.08;;;;;;;16.14;70.53;101719.50;2079566;28;20100;-72
2022/08/07 04:08:02;;;;;;;3.28;0.80;;;;;;;16.15;70.52;101730.09;2071638;28;20045;-73
2022/08/07 04:09:06;;;;;;;2.15;0.80;;;;;;;16.14;70.31;101730.38;2072912;28;20046;-73
2022/08/07 04:10:11;;;;;;;1.35;0.80;;;;;;;16.12;70.52;101725.25;2056701;28;20043;-72
2022/08/07 04:11:14;;;;;;;1.73;1.02;;;;;;;16.14;70.30;101722.22;2058133;28;20061;-73
2022/08/07 04:12:21;;;;;;;3.10;0.80;;;;;;;16.17;70.43;101727.06;2073300;28;20374;-74
2022/08/07 04:13:24;;;;;;;1.45;0.90;;;;;;;16.18;70.46;101734.94;2072952;28;20041;-74
2022/08/07 04:14:29;;;;;;;2.95;0.98;;;;;;;16.21;70.68;101734.38;2072318;28;20076;-74
2022/08/07 04:15:32;;;;;;;2.10;0.90;;;;;;;16.20;70.68;101734.63;2081592;28;20037;-75
2022/08/07 04:16:36;;;;;;;1.63;1.00;;;;;;;16.20;70.33;101737.34;2064610;28;20038;-75
2022/08/07 04:17:41;;;;;;;1.65;0.90;;;;;;;16.19;70.50;101738.47;2065544;28;20038;-74
2022/08/07 04:18:45;;;;;;;3.53;0.95;;;;;;;16.22;70.45;101735.16;2072505;28;20056;-73
2022/08/07 04:19:49;;;;;;;2.95;1.10;;;;;;;16.24;70.24;101733.00;2073194;28;20049;-73
2022/08/07 04:20:51;;;;;;;2.53;1.08;;;;;;;16.25;70.37;101734.59;2072702;28;20509;-73
2022/08/07 04:21:58;;;;;;;2.30;0.77;;;;;;;16.28;70.29;101736.72;2073049;28;20037;-74
2022/08/07 04:23:09;;;;;;;4.25;1.00;;;;;;;16.28;70.37;101738.66;2074514;28;20526;-75
2022/08/07 04:24:15;;;;;;;3.75;1.10;;;;;;;16.25;70.48;101737.31;2072551;28;20097;-74
2022/08/07 04:25:18;;;;;;;3.25;1.30;;;;;;;16.28;70.57;101734.03;2080780;28;20044;-74
2022/08/07 04:26:21;;;;;;;1.20;0.90;;;;;;;16.30;70.44;101741.88;2075683;28;20389;-74
2022/08/07 04:27:24;;;;;;;3.63;1.10;;;;;;;16.49;70.21;101739.22;2081142;28;20605;-74
2022/08/07 04:28:26;;;;;;;2.20;0.80;;;;;;;16.79;69.62;101738.06;2088676;28;20051;-74
2022/08/07 04:29:29;;;;;;;2.67;0.88;;;;;;;17.06;69.19;101742.88;2072548;28;20113;-74
2022/08/07 04:30:33;;;;;;;4.47;1.10;;;;;;;17.22;68.33;101744.28;2072735;28;20505;-74
2022/08/07 04:31:40;;;;;;;2.75;1.10;;;;;;;17.42;67.97;101745.06;2098114;28;20502;-73
2022/08/07 04:32:43;;;;;;;2.78;1.05;;;;;;;17.58;67.12;101746.44;2088653;28;20048;-74
2022/08/07 04:33:48;;;;;;;4.95;1.77;;;;;;;17.75;67.05;101746.72;2091852;28;20523;-72
2022/08/07 04:34:53;;;;;;;3.15;1.50;;;;;;;17.89;66.44;101748.69;2097565;28;20036;-73
2022/08/07 04:35:59;;;;;;;4.00;1.20;;;;;;;18.02;65.91;101753.34;2081221;28;20042;-74
2022/08/07 04:37:04;;;;;;;4.88;1.42;;;;;;;18.13;65.45;101749.34;2082714;28;20056;-73
2022/08/07 04:38:07;;;;;;;2.70;1.20;;;;;;;18.23;64.95;101751.88;2064567;28;20037;-74
2022/08/07 04:39:11;;;;;;;2.00;1.00;;;;;;;18.39;64.84;101754.31;2057855;28;20039;-74
2022/08/07 04:40:14;;;;;;;3.00;1.08;;;;;;;18.47;64.21;101754.41;2064809;28;20046;-74
2022/08/07 04:41:18;;;;;;;3.10;1.00;;;;;;;18.51;63.69;101743.72;2078011;28;20030;-74
2022/08/07 04:42:26;;;;;;;1.98;1.05;;;;;;;18.66;63.87;101746.13;2073426;28;20049;-74
2022/08/07 04:43:35;;;;;;;2.90;1.13;;;;;;;18.79;63.31;101746.44;2088886;28;20037;-74
2022/08/07 04:44:38;;;;;;;4.03;1.17;;;;;;;18.90;63.04;101751.34;2088846;28;20033;-74
2022/08/07 04:46:02;;;;;;;2.63;1.10;;;;;;;19.03;62.54;101746.19;2088885;28;20475;-73
2022/08/07 04:47:20;;;;;;;3.17;0.90;;;;;;;19.12;61.90;101750.59;2072555;28;20041;-74
2022/08/07 04:49:03;;;;;;;2.38;1.10;;;;;;;19.25;61.54;101756.31;2061990;28;20442;-74
2022/08/07 04:50:32;;;;;;;6.55;1.30;;;;;;;19.41;61.00;101754.84;2077747;28;20486;-73
2022/08/07 04:52:13;;;;;;;9.02;1.15;;;;;;;19.50;60.57;101753.00;2073059;28;20045;-72
2022/08/07 04:53:32;;;;;;;2.88;1.25;;;;;;;19.62;60.56;101745.06;2064642;28;20042;-73
2022/08/07 04:54:51;;;;;;;3.25;2.05;;;;;;;19.74;60.39;101751.91;2061691;28;20042;-73
2022/08/07 04:56:06;;;;;;;2.30;1.00;;;;;;;19.83;60.02;101753.59;2077644;28;20038;-73
2022/08/07 04:57:52;;;;;;;2.53;1.20;;;;;;;19.94;59.50;101759.56;2064498;28;20394;-72
2022/08/07 04:59:06;;;;;;;5.05;1.15;;;;;;;20.00;58.93;101754.78;2075563;28;20049;-72
2022/08/07 05:00:18;;;;;;;3.58;1.25;;;;;;;20.10;59.18;101762.72;2082048;28;20610;-72
2022/08/07 05:01:34;;;;;;;2.45;1.25;;;;;;;20.16;58.72;101763.38;2074127;28;20042;-72
2022/08/07 05:02:59;;;;;;;1.67;1.00;;;;;;;20.24;58.48;101760.69;2074212;28;20045;-73
2022/08/07 05:04:17;;;;;;;2.85;1.08;;;;;;;20.32;58.00;101756.38;2091939;28;20032;-73
2022/08/07 05:05:40;;;;;;;2.30;1.00;;;;;;;20.41;58.04;101754.50;2086266;28;20059;-73